This demonstration page uses our WeatherBlox Daily Observations layout. Learn more.

41.86663, -103.66717

Hourly Observations for December 23, 2019

Temp ( °F °C ) Dew Point ( °F °C ) Humidity (%) Winds ( mph kmh ) Pressure ( in mb ) Visibility ( mi km ) Precip ( " mm )
12:53 am 00:53 Clear 31 -0.6 27 -2.8 85 85 NNW 3 6 29.98 1015 10 16.0934 0 0
1:53 am 01:53 Clear 30 -1.1 26 -3.3 85 85 N 5 7 29.99 1016 10 16.0934 0 0
2:53 am 02:53 Clear 29 -1.7 25 -3.9 85 85 ESE 3 6 30 1016 10 16.0934 0 0
3:53 am 03:53 Clear 29 -1.7 26 -3.3 89 89 W 8 13 30.01 1016 10 16.0934 0 0
4:53 am 04:53 Clear 29 -1.7 26 -3.3 89 89 Calm 30 1016 10 16.0934 0 0
5:53 am 05:53 Clear 28 -2.2 26 -3.3 92 92 NW 6 9 30 1016 10 16.0934 0 0
6:53 am 06:53 Clear 27 -2.8 25 -3.9 92 92 WNW 6 9 30 1016 10 16.0934 0 0
7:53 am 07:53 Sunny 29 -1.7 25 -3.9 85 85 NW 6 9 30.01 1016 10 16.0934 0 0
8:53 am 08:53 Sunny 32 0 28 -2.2 85 85 NW 6 9 30.03 1017 10 16.0934 0 0
9:53 am 09:53 Sunny 35 1.7 30 -1.1 82 82 WNW 3 6 30.02 1017 10 16.0934 0 0
10:53 am 10:53 Sunny 41 5 28 -2.2 60 60 NW 8 13 29.99 1016 10 16.0934 0 0
11:53 am 11:53 Sunny 47 8.3 29 -1.7 50 50 Calm 29.94 1014 10 16.0934 0 0
12:53 pm 12:53 Sunny 53 11.7 27 -2.8 37 37 N 3 6 29.9 1013 10 16.0934 0 0
1:53 pm 13:53 Sunny 51 10.6 29 -1.7 43 43 WNW 3 6 29.88 1012 10 16.0934 0 0
2:53 pm 14:53 Sunny 48 8.9 31 -0.6 52 52 undefined N/A 29.88 1012 10 16.0934 0 0
3:53 pm 15:53 Sunny 43 6.1 31 -0.6 63 63 NNW 8 13 29.91 1013 10 16.0934 0 0
4:53 pm 16:53 Clear 39 3.9 30 -1.1 70 70 Calm 29.93 1013 10 16.0934 0 0
5:53 pm 17:53 Clear 37 2.8 30 -1.1 76 76 N 5 7 29.95 1014 10 16.0934 0 0
6:53 pm 18:53 Clear 38 3.3 30 -1.1 73 73 N 7 11 29.94 1014 10 16.0934 0 0
7:53 pm 19:53 Clear 36 2.2 29 -1.7 76 76 NW 7 11 29.93 1013 10 16.0934 0 0
8:53 pm 20:53 Clear 37 2.8 30 -1.1 76 76 NNW 3 6 29.91 1013 10 16.0934 0 0
9:53 pm 21:53 Clear 36 2.2 29 -1.7 76 76 NW 9 15 29.9 1013 10 16.0934 0 0
10:53 pm 22:53 Clear 37 2.8 28 -2.2 70 70 NNW 6 9 29.89 1012 10 16.0934 0 0
11:53 pm 23:53 Clear 36 2.2 29 -1.7 76 76 NNW 5 7 29.84 1011 10 16.0934 0 0

Powered by AerisWeather